Time;durP1;ratioP1;P1;durP2;ratioP2;P2;SDS_P1;SDS_P2;PMS_P1;PMS_P2;Temp;Humidity;BMP_temperature;BMP_pressure;BME280_temperature;BME280_humidity;BME280_pressure;Samples;Min_cycle;Max_cycle;Signal;HPM_P1;HPM_P2
2022/05/20 00:01:48;;;;;;;25.67;8.37;;;;;;;11.45;79.61;95802.41;5100500;28;20201;-84
2022/05/20 00:04:23;;;;;;;22.00;9.90;;;;;;;11.31;80.73;95789.31;5097783;28;20307;-83
2022/05/20 00:06:52;;;;;;;16.43;9.40;;;;;;;11.33;81.10;95807.34;5101630;28;20222;-85
2022/05/20 00:09:23;;;;;;;22.73;9.40;;;;;;;11.35;81.11;95803.56;5100153;28;20208;-84
2022/05/20 00:11:56;;;;;;;22.00;10.37;;;;;;;11.25;81.88;95789.31;5093702;28;20236;-85
2022/05/20 00:14:31;;;;;;;12.33;7.57;;;;;;;11.33;80.03;95802.97;5097032;28;20242;-84
2022/05/20 00:17:04;;;;;;;19.57;9.80;;;;;;;11.30;80.10;95803.34;5099313;28;20207;-84
2022/05/20 00:19:33;;;;;;;21.27;10.67;;;;;;;11.28;81.45;95802.72;5104129;28;20550;-84
2022/05/20 00:22:08;;;;;;;20.00;10.17;;;;;;;11.21;82.38;95804.50;5102839;28;20204;-84
2022/05/20 00:25:45;;;;;;;18.07;9.70;;;;;;;11.23;82.96;95806.91;5094490;28;20349;-86
2022/05/20 00:27:28;;;;;;;16.97;9.50;;;;;;;11.15;83.33;95807.88;5101007;28;20319;-86
2022/05/20 00:30:03;;;;;;;19.77;8.60;;;;;;;11.17;84.07;95810.25;5098757;28;20275;-84
2022/05/20 00:32:35;;;;;;;20.73;9.13;;;;;;;11.10;83.90;95818.06;5099463;28;20211;-85
2022/05/20 00:35:04;;;;;;;18.20;8.90;;;;;;;11.00;85.19;95812.38;5100084;28;20284;-85
2022/05/20 00:37:34;;;;;;;20.33;8.93;;;;;;;11.02;86.08;95827.81;5100624;28;20208;-84
2022/05/20 00:40:05;;;;;;;13.80;7.47;;;;;;;10.92;85.57;95814.34;5098036;28;20583;-83
2022/05/20 00:42:35;;;;;;;15.00;7.70;;;;;;;10.98;84.99;95832.59;5105022;28;20339;-84
2022/05/20 00:45:09;;;;;;;18.43;6.50;;;;;;;10.94;84.45;95827.97;5106893;28;20200;-84
2022/05/20 00:47:43;;;;;;;13.60;6.10;;;;;;;10.89;84.09;95820.72;5103136;28;20266;-85
2022/05/20 00:50:19;;;;;;;11.87;6.60;;;;;;;10.82;84.73;95814.69;5102370;28;20244;-87
2022/05/20 00:52:53;;;;;;;13.73;7.60;;;;;;;10.86;86.00;95828.09;5100331;28;20206;-86
2022/05/20 00:55:25;;;;;;;16.03;6.90;;;;;;;10.76;86.17;95816.22;5096242;28;20273;-86
2022/05/20 00:58:04;;;;;;;13.47;6.50;;;;;;;10.87;86.30;95832.31;5100224;28;20200;-86
2022/05/20 01:00:47;;;;;;;9.27;5.80;;;;;;;10.79;85.80;95820.28;5097464;28;20297;-87
2022/05/20 01:03:33;;;;;;;11.07;5.40;;;;;;;10.69;85.84;95823.19;5108706;28;20232;-87
2022/05/20 01:06:03;;;;;;;20.10;5.63;;;;;;;10.71;84.95;95823.00;5105385;28;20275;-91
2022/05/20 01:08:34;;;;;;;8.47;5.33;;;;;;;10.68;85.19;95826.78;5115695;28;20223;-92
2022/05/20 01:11:06;;;;;;;14.27;4.97;;;;;;;10.67;85.27;95814.00;5109032;28;20208;-92
2022/05/20 01:13:36;;;;;;;16.63;5.57;;;;;;;10.62;86.22;95824.16;5101729;28;20206;-91
2022/05/20 01:16:22;;;;;;;9.93;5.37;;;;;;;10.51;87.26;95802.06;5096243;28;20222;-92
2022/05/20 01:18:53;;;;;;;9.97;4.97;;;;;;;10.58;87.59;95815.94;5098918;28;20281;-82
2022/05/20 01:21:24;;;;;;;8.07;4.67;;;;;;;10.48;86.94;95804.22;5100247;28;20259;-82
2022/05/20 01:24:04;;;;;;;10.23;4.63;;;;;;;10.46;86.78;95807.03;5097871;28;20662;-84
2022/05/20 01:26:34;;;;;;;8.43;4.70;;;;;;;10.46;87.02;95809.63;5094641;28;20193;-83
2022/05/20 01:29:06;;;;;;;11.63;4.87;;;;;;;10.44;86.52;95813.41;5098416;28;20257;-82
2022/05/20 01:31:52;;;;;;;16.33;5.20;;;;;;;10.40;86.82;95807.78;5097158;28;20728;-84
2022/05/20 01:34:43;;;;;;;11.20;4.73;;;;;;;10.39;86.51;95815.78;5098064;28;20211;-83
2022/05/20 01:37:16;;;;;;;11.67;4.83;;;;;;;10.41;86.00;95817.19;5099362;28;20207;-84
2022/05/20 01:39:49;;;;;;;10.33;4.90;;;;;;;10.39;86.50;95813.19;5100345;28;20196;-84
2022/05/20 01:42:27;;;;;;;8.97;4.30;;;;;;;10.26;87.17;95821.66;5096552;28;20224;-82
2022/05/20 01:45:01;;;;;;;12.80;4.33;;;;;;;10.27;87.79;95814.66;5101533;28;20201;-82
2022/05/20 01:47:37;;;;;;;9.63;4.83;;;;;;;10.30;86.03;95819.50;5103981;28;20212;-82
2022/05/20 01:50:15;;;;;;;10.33;4.60;;;;;;;10.31;85.78;95826.28;5094284;28;20694;-82
2022/05/20 01:52:55;;;;;;;9.50;4.80;;;;;;;10.25;86.40;95820.84;5095904;28;20294;-84
2022/05/20 01:55:50;;;;;;;9.07;4.87;;;;;;;10.19;87.77;95819.00;5095868;28;20192;-86
2022/05/20 01:58:34;;;;;;;10.83;4.90;;;;;;;10.19;87.86;95826.78;5104206;28;20754;-86
2022/05/20 02:01:12;;;;;;;7.87;4.87;;;;;;;10.20;87.19;95830.19;5099759;28;20631;-86
2022/05/20 02:03:50;;;;;;;9.27;4.67;;;;;;;10.18;86.46;95820.00;5092792;28;20208;-87
2022/05/20 02:06:26;;;;;;;7.73;4.03;;;;;;;10.18;85.59;95827.00;5093656;28;20204;-84
2022/05/20 02:09:03;;;;;;;9.53;4.47;;;;;;;10.09;85.62;95812.47;5096907;28;20235;-83
2022/05/20 02:11:41;;;;;;;6.37;4.50;;;;;;;10.13;86.61;95821.53;5099686;28;20188;-82
2022/05/20 02:14:25;;;;;;;11.83;4.50;;;;;;;10.09;85.85;95828.88;5102643;28;20219;-82
2022/05/20 02:17:03;;;;;;;8.40;4.00;;;;;;;10.01;86.52;95829.00;5102639;28;20196;-85
2022/05/20 02:19:40;;;;;;;6.03;4.20;;;;;;;10.00;86.60;95826.56;5098320;28;20216;-84
2022/05/20 02:22:15;;;;;;;7.23;4.50;;;;;;;10.02;87.21;95834.97;5100059;28;20238;-81
2022/05/20 02:24:48;;;;;;;14.03;4.27;;;;;;;10.00;85.93;95821.38;5110009;28;20212;-87
2022/05/20 02:27:24;;;;;;;8.37;3.80;;;;;;;10.03;85.18;95832.22;5099710;28;20205;-90
2022/05/20 02:30:03;;;;;;;13.20;3.67;;;;;;;10.01;84.23;95831.59;5099159;28;20286;-88
2022/05/20 02:32:36;;;;;;;7.03;3.60;;;;;;;9.97;83.56;95832.94;5100013;28;20283;-89
2022/05/20 02:35:08;;;;;;;8.80;4.03;;;;;;;9.95;83.96;95834.94;5102858;28;20698;-89
2022/05/20 02:37:44;;;;;;;8.27;3.70;;;;;;;10.00;83.62;95837.78;5101737;28;20284;-86
2022/05/20 02:40:16;;;;;;;10.70;4.40;;;;;;;10.00;83.74;95839.56;5102703;28;20612;-87
2022/05/20 02:42:53;;;;;;;10.17;4.67;;;;;;;9.96;83.61;95839.13;5105961;28;20231;-87
2022/05/20 02:45:24;;;;;;;10.37;5.30;;;;;;;9.95;84.20;95834.13;5098298;28;20255;-87
2022/05/20 02:47:55;;;;;;;11.43;5.20;;;;;;;9.91;83.25;95833.69;5098194;28;20220;-87
2022/05/20 02:50:25;;;;;;;13.07;5.57;;;;;;;9.90;82.73;95833.88;5102036;28;20253;-87
2022/05/20 02:52:55;;;;;;;8.50;5.40;;;;;;;9.77;82.08;95820.75;5114538;28;20185;-87
2022/05/20 02:55:27;;;;;;;12.13;4.93;;;;;;;9.75;83.28;95814.94;5118711;28;20205;-86
2022/05/20 02:58:06;;;;;;;9.03;4.83;;;;;;;9.78;83.40;95823.19;5119730;28;20575;-86
2022/05/20 03:06:12;;;;;;;8.70;4.43;;;;;;;9.65;83.32;95823.00;5105811;28;20668;-84
2022/05/20 03:08:41;;;;;;;17.30;5.40;;;;;;;9.65;84.58;95823.00;5106603;28;20593;-85
2022/05/20 03:11:12;;;;;;;11.67;5.57;;;;;;;9.61;86.38;95819.16;5101994;28;20239;-88
2022/05/20 03:13:48;;;;;;;11.27;5.50;;;;;;;9.59;87.10;95810.75;5108748;28;20258;-87
2022/05/20 03:16:22;;;;;;;12.63;6.13;;;;;;;9.59;86.67;95821.16;5110535;28;20195;-86
2022/05/20 03:19:23;;;;;;;15.63;6.50;;;;;;;9.58;86.92;95824.75;5100236;28;20222;-84
2022/05/20 03:21:57;;;;;;;17.40;6.50;;;;;;;9.62;86.55;95826.78;5102316;28;20326;-84
2022/05/20 03:24:27;;;;;;;20.10;6.93;;;;;;;9.60;88.06;95820.16;5108912;28;20204;-84
2022/05/20 03:26:57;;;;;;;17.10;6.70;;;;;;;9.47;87.80;95800.06;5096480;28;20295;-84
2022/05/20 03:29:32;;;;;;;19.20;7.40;;;;;;;9.63;87.92;95831.00;5106324;28;20662;-84
2022/05/20 03:32:02;;;;;;;12.90;7.20;;;;;;;9.57;87.85;95826.53;5105565;28;20195;-81
2022/05/20 03:34:32;;;;;;;16.37;6.87;;;;;;;9.60;87.24;95828.75;5099015;28;20261;-82
2022/05/20 03:37:02;;;;;;;9.43;5.63;;;;;;;9.59;85.88;95821.16;5102144;28;20735;-83
2022/05/20 03:39:47;;;;;;;6.87;4.43;;;;;;;9.75;85.89;95844.31;5099341;28;20274;-83
2022/05/20 03:42:35;;;;;;;7.60;4.37;;;;;;;9.80;83.89;95854.13;5104156;28;20251;-84
2022/05/20 03:45:13;;;;;;;10.07;4.33;;;;;;;9.77;83.55;95857.91;5102778;28;20257;-85
2022/05/20 03:47:47;;;;;;;14.33;4.40;;;;;;;9.76;84.03;95858.88;5098406;28;20244;-83
2022/05/20 03:50:18;;;;;;;6.87;3.53;;;;;;;9.76;83.22;95860.66;5096412;28;20266;-82
2022/05/20 03:53:02;;;;;;;7.87;3.93;;;;;;;9.84;82.55;95860.56;5102124;28;20204;-83
2022/05/20 03:55:36;;;;;;;5.43;3.90;;;;;;;9.87;82.12;95870.59;5100849;28;20243;-83
2022/05/20 03:58:08;;;;;;;7.43;3.90;;;;;;;9.89;81.72;95874.63;5107892;28;20205;-83
2022/05/20 04:03:24;;;;;;;7.73;3.70;;;;;;;9.86;81.06;95874.16;5092131;28;20241;-83
2022/05/20 04:05:54;;;;;;;7.60;3.60;;;;;;;9.79;81.09;95868.09;5100599;28;20215;-83
2022/05/20 04:08:24;;;;;;;6.83;3.70;;;;;;;9.87;80.93;95875.78;5107726;28;20204;-84
2022/05/20 04:10:57;;;;;;;6.43;3.90;;;;;;;9.81;81.84;95874.72;5105893;28;20192;-83
2022/05/20 04:13:28;;;;;;;8.60;4.30;;;;;;;9.77;81.54;95859.69;5103130;28;20273;-83
2022/05/20 04:16:04;;;;;;;11.30;3.87;;;;;;;9.92;80.67;95879.44;5104537;28;20205;-83
2022/05/20 04:18:34;;;;;;;8.03;3.83;;;;;;;9.94;79.67;95872.28;5110144;28;20229;-83
2022/05/20 04:21:10;;;;;;;8.30;4.10;;;;;;;9.78;80.25;95877.69;5102174;28;20204;-83
2022/05/20 04:23:46;;;;;;;11.60;4.37;;;;;;;9.63;81.36;95874.31;5105457;28;20295;-82
2022/05/20 04:26:17;;;;;;;9.23;4.50;;;;;;;9.45;82.83;95860.91;5108146;28;20318;-84
2022/05/20 04:28:56;;;;;;;8.13;4.80;;;;;;;9.57;82.96;95864.66;5104126;28;20227;-89
2022/05/20 04:31:28;;;;;;;13.60;4.53;;;;;;;9.56;83.14;95870.81;5098191;28;20200;-73
2022/05/20 04:33:57;;;;;;;16.33;4.80;;;;;;;9.63;82.81;95867.34;5090130;28;20223;-74
2022/05/20 04:36:27;;;;;;;9.13;4.60;;;;;;;9.68;83.20;95874.56;5099180;28;20216;-73
2022/05/20 04:38:58;;;;;;;9.83;4.47;;;;;;;9.61;84.25;95874.47;5094868;28;20196;-73
2022/05/20 04:47:06;;;;;;;9.93;4.87;;;;;;;9.87;82.85;95883.59;5100135;28;20269;-73
2022/05/20 04:49:42;;;;;;;10.93;5.00;;;;;;;9.90;83.07;95881.41;5095644;28;20725;-73
2022/05/20 04:52:13;;;;;;;17.17;6.17;;;;;;;9.97;84.68;95891.88;5098229;28;20253;-74
2022/05/20 04:54:49;;;;;;;18.17;5.17;;;;;;;9.79;83.24;95896.66;5089087;28;20278;-73
2022/05/20 04:57:25;;;;;;;12.00;5.80;;;;;;;9.83;83.43;95897.91;5097873;28;20192;-72
2022/05/20 04:59:55;;;;;;;11.83;5.10;;;;;;;9.81;84.40;95889.50;5094939;28;20193;-73
2022/05/20 05:02:28;;;;;;;13.63;4.77;;;;;;;9.88;84.26;95900.75;5093494;28;20239;-72
2022/05/20 05:05:07;;;;;;;10.77;5.43;;;;;;;10.00;84.28;95897.50;5092306;28;20193;-74
2022/05/20 05:07:41;;;;;;;8.20;5.20;;;;;;;10.07;83.15;95900.97;5094895;28;20200;-73
2022/05/20 05:10:13;;;;;;;8.83;5.40;;;;;;;10.16;83.40;95892.09;5094488;28;20593;-75
2022/05/20 05:12:43;;;;;;;9.97;5.50;;;;;;;10.27;82.22;95896.81;5095701;28;20192;-79
2022/05/20 05:15:17;;;;;;;12.77;6.23;;;;;;;10.41;80.86;95905.56;5095609;28;20940;-74
2022/05/20 05:20:37;;;;;;;9.50;5.30;;;;;;;10.61;79.98;95896.13;5091824;28;20208;-73
2022/05/20 05:23:09;;;;;;;15.67;5.10;;;;;;;10.71;79.33;95901.00;5100983;28;20224;-72
2022/05/20 05:25:41;;;;;;;11.53;5.83;;;;;;;10.82;78.16;95898.69;5093785;28;20390;-73
2022/05/20 05:28:13;;;;;;;8.50;4.70;;;;;;;10.91;79.04;95894.16;5088190;28;20769;-74
2022/05/20 05:30:43;;;;;;;8.13;5.40;;;;;;;10.92;77.25;95895.78;5093543;28;20260;-73
2022/05/20 05:33:16;;;;;;;9.43;5.17;;;;;;;10.98;76.99;95896.81;5096741;28;21576;-73
2022/05/20 05:35:48;;;;;;;11.07;5.77;;;;;;;11.02;76.70;95898.88;5094775;28;20236;-73
2022/05/20 05:38:16;;;;;;;13.93;5.80;;;;;;;10.99;76.78;95901.84;5097039;28;20269;-73
2022/05/20 05:40:46;;;;;;;7.83;5.80;;;;;;;10.93;77.74;95891.38;5090164;28;20213;-74
2022/05/20 05:43:16;;;;;;;8.73;5.13;;;;;;;11.07;78.31;95893.06;5094379;28;20229;-73
2022/05/20 05:45:45;;;;;;;10.93;5.80;;;;;;;11.16;77.16;95884.13;5094448;28;20357;-73
2022/05/20 05:48:21;;;;;;;11.03;6.07;;;;;;;11.25;77.00;95889.00;5096648;28;20258;-72
2022/05/20 05:50:50;;;;;;;10.17;5.67;;;;;;;11.31;77.03;95882.22;5100954;28;20195;-78
2022/05/20 05:53:22;;;;;;;17.87;6.10;;;;;;;11.40;76.90;95883.66;5094085;28;20196;-73
2022/05/20 05:55:57;;;;;;;14.60;5.33;;;;;;;11.54;76.50;95887.97;5098045;28;20227;-74
2022/05/20 05:58:28;;;;;;;11.93;5.70;;;;;;;11.59;75.61;95887.38;5092548;28;20207;-73
2022/05/20 06:00:58;;;;;;;11.90;6.10;;;;;;;11.70;74.90;95894.66;5098027;28;20207;-72
2022/05/20 06:03:31;;;;;;;12.03;6.27;;;;;;;11.76;75.37;95894.69;5093806;28;20244;-73
2022/05/20 06:06:01;;;;;;;14.20;6.90;;;;;;;11.86;74.29;95889.91;5090042;28;20207;-72
2022/05/20 06:08:33;;;;;;;10.37;6.10;;;;;;;11.97;74.07;95891.16;5096051;28;20258;-72
2022/05/20 06:11:02;;;;;;;14.10;7.03;;;;;;;11.98;73.62;95884.94;5094846;28;20209;-72
2022/05/20 06:13:35;;;;;;;13.87;6.57;;;;;;;12.04;72.91;95886.75;5088427;28;20560;-72
2022/05/20 06:16:05;;;;;;;19.00;7.23;;;;;;;12.08;72.85;95874.16;5087547;28;20197;-73
2022/05/20 06:18:38;;;;;;;10.10;6.00;;;;;;;12.31;71.39;95887.63;5092296;28;20196;-73
2022/05/20 06:21:09;;;;;;;17.17;7.70;;;;;;;12.41;70.18;95880.22;5084907;28;20734;-72
2022/05/20 06:23:39;;;;;;;16.33;6.27;;;;;;;12.46;70.71;95878.66;5082130;28;20736;-73
2022/05/20 06:26:09;;;;;;;27.47;8.57;;;;;;;12.51;71.58;95883.25;5080385;28;20209;-72
2022/05/20 06:28:40;;;;;;;27.97;7.70;;;;;;;12.62;71.50;95882.66;5084918;28;20773;-72
2022/05/20 06:31:10;;;;;;;17.97;6.60;;;;;;;12.74;70.58;95882.88;5085220;28;20277;-72
2022/05/20 06:33:44;;;;;;;86.10;10.43;;;;;;;12.91;68.41;95873.63;5086412;28;20231;-73
2022/05/20 06:41:48;;;;;;;28.37;7.87;;;;;;;13.23;65.26;95874.63;5090379;28;20235;-73
2022/05/20 06:44:16;;;;;;;12.77;6.80;;;;;;;13.30;65.32;95880.66;5087259;28;20201;-72
2022/05/20 06:46:46;;;;;;;14.17;6.63;;;;;;;13.40;65.14;95881.00;5087989;28;20910;-73
2022/05/20 06:49:18;;;;;;;63.27;17.47;;;;;;;13.41;66.01;95875.59;5086697;28;20247;-73
2022/05/20 06:51:49;;;;;;;29.10;10.53;;;;;;;13.53;65.80;95876.53;5088379;28;20205;-73
2022/05/20 06:54:19;;;;;;;16.83;6.87;;;;;;;13.64;64.30;95865.47;5086552;28;20247;-74
2022/05/20 06:56:49;;;;;;;30.50;11.63;;;;;;;13.76;63.65;95873.47;5091348;28;20227;-74
2022/05/20 06:59:19;;;;;;;16.70;6.97;;;;;;;13.84;62.40;95880.28;5094079;28;20601;-73
2022/05/20 07:01:48;;;;;;;43.33;20.33;;;;;;;13.92;62.17;95874.81;5097577;28;20208;-74
2022/05/20 07:04:20;;;;;;;19.20;8.97;;;;;;;13.98;62.12;95874.78;5090363;28;20208;-73
2022/05/20 07:06:50;;;;;;;26.00;8.70;;;;;;;14.12;62.89;95870.28;5097976;28;20234;-73
2022/05/20 07:09:20;;;;;;;72.23;11.13;;;;;;;14.20;62.31;95865.59;5093398;28;20204;-73
2022/05/20 07:11:49;;;;;;;50.97;9.17;;;;;;;14.31;62.40;95863.34;5091622;28;20197;-74
2022/05/20 07:14:18;;;;;;;52.63;11.07;;;;;;;14.38;61.51;95869.34;5089240;28;20212;-74
2022/05/20 07:16:47;;;;;;;19.63;8.47;;;;;;;14.43;61.80;95870.31;5097860;28;20265;-73
2022/05/20 07:19:15;;;;;;;11.00;6.77;;;;;;;14.39;59.72;95870.97;5097366;28;20289;-81
2022/05/20 07:21:47;;;;;;;35.77;10.87;;;;;;;14.44;60.55;95876.34;5092207;28;20200;-79
2022/05/20 07:24:18;;;;;;;51.80;12.33;;;;;;;14.59;59.61;95869.00;5096137;28;20665;-82
2022/05/20 07:26:49;;;;;;;105.10;19.80;;;;;;;14.72;58.99;95871.50;5095097;28;20207;-81
2022/05/20 07:29:17;;;;;;;68.00;12.73;;;;;;;14.80;59.75;95860.00;5095140;28;20192;-81
2022/05/20 07:31:49;;;;;;;30.63;9.37;;;;;;;14.93;59.41;95863.28;5099534;28;20226;-81
2022/05/20 07:34:22;;;;;;;17.00;6.90;;;;;;;15.04;57.44;95853.94;5090381;28;20711;-80
2022/05/20 07:36:54;;;;;;;51.53;8.90;;;;;;;15.17;57.34;95859.88;5094134;28;20204;-83
2022/05/20 07:39:23;;;;;;;76.10;9.63;;;;;;;15.30;56.05;95864.16;5096458;28;21307;-80
2022/05/20 07:41:51;;;;;;;159.40;14.07;;;;;;;15.39;56.05;95862.03;5094821;28;20203;-80
2022/05/20 07:44:23;;;;;;;30.80;7.33;;;;;;;15.43;54.60;95869.28;5097625;28;20656;-81
2022/05/20 07:46:52;;;;;;;11.40;5.67;;;;;;;15.47;53.52;95865.22;5096697;28;20198;-80
2022/05/20 07:49:22;;;;;;;7.07;5.03;;;;;;;15.59;53.45;95860.84;5091544;28;20236;-80
2022/05/20 07:51:57;;;;;;;32.70;5.87;;;;;;;15.68;53.86;95854.28;5092564;28;20193;-81
2022/05/20 07:54:31;;;;;;;82.90;9.00;;;;;;;15.76;54.20;95854.00;5093866;28;20203;-80
2022/05/20 07:57:11;;;;;;;14.30;4.60;;;;;;;15.93;53.12;95853.41;5096179;28;20698;-80
2022/05/20 07:59:46;;;;;;;27.07;5.97;;;;;;;16.05;52.75;95846.38;5096640;28;20200;-80
2022/05/20 08:02:16;;;;;;;11.67;4.00;;;;;;;16.12;52.46;95849.72;5095113;28;20205;-80
2022/05/20 08:04:56;;;;;;;8.47;4.00;;;;;;;16.31;50.90;95846.81;5096350;28;21115;-80
2022/05/20 08:07:34;;;;;;;13.07;5.50;;;;;;;16.43;49.27;95847.66;5104723;28;20196;-78
2022/05/20 08:10:04;;;;;;;10.10;4.10;;;;;;;16.45;48.57;95842.97;5102521;28;20249;-77
2022/05/20 08:12:33;;;;;;;8.50;4.63;;;;;;;16.56;47.05;95835.38;5093853;28;20204;-79
2022/05/20 08:15:03;;;;;;;5.33;3.60;;;;;;;16.61;47.22;95843.38;5095178;28;20218;-83
2022/05/20 08:17:35;;;;;;;14.43;3.97;;;;;;;16.68;47.35;95838.84;5099155;28;20203;-76
2022/05/20 08:20:04;;;;;;;11.27;3.50;;;;;;;16.78;46.00;95833.81;5091371;28;20204;-79
2022/05/20 08:22:35;;;;;;;8.67;3.07;;;;;;;16.84;43.12;95833.72;5097489;28;20701;-79
2022/05/20 08:25:06;;;;;;;8.97;2.77;;;;;;;16.93;43.60;95829.72;5094234;28;20208;-79
2022/05/20 08:27:34;;;;;;;24.57;11.70;;;;;;;17.01;44.77;95826.75;5099207;28;20215;-79
2022/05/20 08:30:12;;;;;;;29.60;13.73;;;;;;;17.10;44.98;95818.50;5098399;28;20262;-79
2022/05/20 08:32:40;;;;;;;10.17;4.93;;;;;;;17.21;44.86;95829.00;5098755;28;20196;-79
2022/05/20 08:35:10;;;;;;;9.53;4.37;;;;;;;17.37;44.46;95822.28;5094086;28;20754;-79
2022/05/20 08:37:44;;;;;;;12.13;5.90;;;;;;;17.58;44.15;95824.31;5101965;28;20287;-79
2022/05/20 08:40:14;;;;;;;18.07;7.73;;;;;;;17.74;43.63;95815.69;5089562;28;21228;-78
2022/05/20 08:42:43;;;;;;;7.30;3.93;;;;;;;17.90;42.60;95814.94;5094343;28;20224;-78
2022/05/20 08:45:14;;;;;;;7.10;3.20;;;;;;;17.94;41.55;95812.66;5096143;28;20218;-77
2022/05/20 08:47:46;;;;;;;5.03;2.50;;;;;;;18.11;41.56;95811.66;5092790;28;20204;-77
2022/05/20 08:50:18;;;;;;;41.37;8.13;;;;;;;18.24;43.17;95809.78;5099971;28;20249;-78
2022/05/20 08:52:52;;;;;;;6.40;3.00;;;;;;;18.42;42.31;95809.53;5092444;28;20208;-77
2022/05/20 08:55:22;;;;;;;6.67;2.83;;;;;;;18.53;41.97;95801.59;5093626;28;20335;-75
2022/05/20 08:57:59;;;;;;;7.15;2.65;;;;;;;18.65;42.42;95799.69;5094311;28;20281;-75
2022/05/20 09:00:28;;;;;;;17.85;10.43;;;;;;;18.82;42.06;95794.41;5090428;28;20208;-78
2022/05/20 09:03:01;;;;;;;10.30;3.15;;;;;;;18.83;40.87;95785.50;5089430;28;20226;-76
2022/05/20 09:05:33;;;;;;;8.38;2.80;;;;;;;18.90;41.52;95774.78;5097079;28;20192;-75
2022/05/20 09:08:07;;;;;;;7.38;2.25;;;;;;;18.93;41.65;95769.03;5098549;28;20203;-75
2022/05/20 09:10:40;;;;;;;8.40;2.50;;;;;;;19.12;40.77;95778.25;5095811;28;20196;-74
2022/05/20 09:13:13;;;;;;;5.03;2.42;;;;;;;19.26;39.52;95763.66;5088464;28;20208;-76
2022/05/20 09:15:45;;;;;;;6.78;2.47;;;;;;;19.35;39.51;95759.56;5096185;28;20302;-75
2022/05/20 09:18:21;;;;;;;5.35;2.83;;;;;;;19.46;38.84;95756.03;5092257;28;20197;-75
2022/05/20 09:20:51;;;;;;;5.40;2.30;;;;;;;19.57;38.98;95764.88;5095023;28;20203;-75
2022/05/20 09:23:23;;;;;;;3.80;2.55;;;;;;;19.60;37.55;95753.81;5094398;28;20332;-76
2022/05/20 09:26:03;;;;;;;21.27;11.75;;;;;;;19.67;38.93;95749.16;5091542;28;20291;-76
2022/05/20 09:28:38;;;;;;;11.63;4.60;;;;;;;19.93;39.34;95748.38;5096072;28;20211;-76
2022/05/20 09:31:22;;;;;;;8.23;2.67;;;;;;;20.10;38.70;95741.16;5097287;28;20314;-76
2022/05/20 09:33:56;;;;;;;11.30;3.50;;;;;;;20.25;37.02;95738.69;5093699;28;20660;-77
2022/05/20 09:36:46;;;;;;;3.53;2.28;;;;;;;20.46;36.08;95744.91;5096191;28;20232;-77
2022/05/20 09:39:28;;;;;;;8.13;3.33;;;;;;;20.65;35.12;95738.22;5090700;28;20208;-80
2022/05/20 09:42:01;;;;;;;8.07;2.58;;;;;;;20.80;33.75;95730.38;5094048;28;20224;-80
2022/05/20 09:44:39;;;;;;;15.05;3.50;;;;;;;20.93;33.78;95722.00;5097151;28;20239;-80
2022/05/20 09:47:20;;;;;;;3.83;2.75;;;;;;;21.16;42.10;95723.47;5094363;28;20207;-80
2022/05/20 09:49:53;;;;;;;11.07;3.00;;;;;;;21.28;34.11;95726.69;5092030;28;20247;-83
2022/05/20 09:52:41;;;;;;;6.97;2.47;;;;;;;21.48;30.99;95737.34;5090705;28;20207;-77
2022/05/20 09:55:15;;;;;;;5.13;2.20;;;;;;;21.59;30.57;95737.41;5093005;28;20235;-79
2022/05/20 09:57:48;;;;;;;5.40;2.17;;;;;;;21.73;29.80;95727.91;5096085;28;20210;-80
2022/05/20 10:00:23;;;;;;;7.60;2.40;;;;;;;21.86;29.81;95730.84;5099497;28;20282;-78
2022/05/20 10:03:00;;;;;;;5.55;2.25;;;;;;;22.02;29.44;95727.19;5094776;28;20209;-79
2022/05/20 10:05:43;;;;;;;4.50;2.47;;;;;;;22.20;29.28;95731.19;5094464;28;20196;-79
2022/05/20 10:08:22;;;;;;;5.82;2.72;;;;;;;22.38;29.28;95727.22;5089411;28;20214;-79
2022/05/20 10:11:03;;;;;;;4.00;1.88;;;;;;;22.53;27.14;95713.97;5094815;28;20289;-79
2022/05/20 10:13:44;;;;;;;4.60;2.42;;;;;;;22.69;28.71;95712.91;5099215;28;20348;-80
2022/05/20 10:16:20;;;;;;;3.85;2.40;;;;;;;22.94;28.62;95712.09;5097902;28;20717;-77
2022/05/20 10:18:58;;;;;;;4.95;1.88;;;;;;;23.12;26.82;95701.69;5104122;28;20196;-76
2022/05/20 10:21:55;;;;;;;2.53;1.80;;;;;;;23.30;26.68;95705.59;5105634;28;20223;-77
2022/05/20 10:24:42;;;;;;;5.13;2.20;;;;;;;23.53;26.97;95704.19;5084150;28;20230;-77
2022/05/20 10:27:14;;;;;;;5.60;3.38;;;;;;;23.75;27.51;95691.34;5109429;28;20199;-76
2022/05/20 10:32:49;;;;;;;4.60;2.70;;;;;;;24.25;25.70;95692.88;5100496;28;20314;-76
2022/05/20 10:35:19;;;;;;;4.13;2.13;;;;;;;24.39;26.32;95687.72;5106541;28;20678;-76
2022/05/20 10:38:09;;;;;;;4.10;2.08;;;;;;;24.38;23.42;95694.91;5105002;28;20188;-76
2022/05/20 10:40:46;;;;;;;2.83;1.70;;;;;;;24.40;24.61;95689.31;5102828;28;20630;-75
2022/05/20 10:49:25;;;;;;;20.45;3.42;;;;;;;25.03;22.71;95676.72;5098028;28;20246;-77
2022/05/20 10:52:09;;;;;;;102.18;11.63;;;;;;;25.10;22.36;95670.00;5112728;28;20336;-77
2022/05/20 10:54:52;;;;;;;173.77;18.52;;;;;;;25.36;21.20;95675.81;5112348;28;20200;-76
2022/05/20 10:57:39;;;;;;;61.25;7.82;;;;;;;25.68;19.42;95670.63;5112474;28;20678;-76
2022/05/20 11:00:13;;;;;;;70.57;8.88;;;;;;;25.72;19.92;95668.16;5108062;28;20204;-78
2022/05/20 11:03:14;;;;;;;31.33;6.60;;;;;;;25.88;20.68;95662.34;5106681;28;20282;-77
2022/05/20 11:06:17;;;;;;;16.48;4.03;;;;;;;26.12;21.23;95661.47;5112687;28;20203;-74
2022/05/20 11:09:01;;;;;;;11.50;3.28;;;;;;;26.50;20.23;95663.78;5090450;28;20261;-75
2022/05/20 11:11:46;;;;;;;19.67;4.88;;;;;;;26.76;20.44;95650.75;5110835;28;20196;-76
2022/05/20 11:14:32;;;;;;;30.40;4.72;;;;;;;27.09;20.18;95659.53;5110498;27;20780;-77
2022/05/20 11:17:24;;;;;;;12.02;2.97;;;;;;;27.26;20.24;95650.91;5110859;28;20203;-73
2022/05/20 11:20:09;;;;;;;29.00;3.63;;;;;;;27.53;19.97;95648.22;5111257;28;20295;-75
2022/05/20 11:23:05;;;;;;;12.45;3.30;;;;;;;27.48;20.01;95643.78;5107735;28;20923;-74
2022/05/20 11:26:08;;;;;;;8.05;3.40;;;;;;;27.32;19.79;95639.81;5111481;28;20202;-74
2022/05/20 11:29:06;;;;;;;14.75;3.63;;;;;;;27.48;20.53;95637.63;5110901;28;20327;-75
2022/05/20 11:31:48;;;;;;;7.25;2.50;;;;;;;27.73;18.56;95633.63;5112030;28;20227;-76
2022/05/20 11:34:51;;;;;;;7.43;3.67;;;;;;;27.86;19.39;95630.91;5111698;28;20661;-75
2022/05/20 11:37:43;;;;;;;22.23;4.35;;;;;;;28.01;20.48;95624.41;5100163;28;20207;-75
2022/05/20 11:40:42;;;;;;;8.57;5.97;;;;;;;28.09;18.46;95618.34;5111973;28;20219;-75
2022/05/20 11:43:46;;;;;;;17.58;8.35;;;;;;;28.37;19.20;95619.03;5112094;28;20226;-75
2022/05/20 11:46:34;;;;;;;134.75;15.57;;;;;;;28.62;18.61;95611.13;5104971;28;20204;-76
2022/05/20 11:49:20;;;;;;;12.20;4.60;;;;;;;28.64;19.40;95608.94;5111266;28;20235;-74
2022/05/20 11:52:13;;;;;;;23.48;6.45;;;;;;;28.76;18.89;95615.59;5111756;28;20215;-75
2022/05/20 11:54:53;;;;;;;44.35;15.30;;;;;;;28.92;19.73;95600.72;5104499;28;20665;-77
2022/05/20 11:57:24;;;;;;;41.53;7.57;;;;;;;29.02;19.26;95603.91;5111350;28;20195;-75
2022/05/20 12:00:00;;;;;;;202.43;19.33;;;;;;;29.14;20.29;95605.97;5111632;28;20208;-75
2022/05/20 12:02:30;;;;;;;83.47;10.25;;;;;;;29.22;19.39;95605.19;5098309;28;20685;-75
2022/05/20 12:05:08;;;;;;;90.60;12.13;;;;;;;29.12;18.70;95603.59;5111268;28;20220;-75
2022/05/20 12:07:47;;;;;;;45.63;6.78;;;;;;;29.36;18.88;95602.41;5107434;28;20199;-78
2022/05/20 12:10:48;;;;;;;11.30;3.38;;;;;;;29.55;17.76;95602.94;5111805;28;20239;-76
2022/05/20 12:13:19;;;;;;;4.10;2.42;;;;;;;29.46;17.67;95592.19;5105797;28;20207;-76
2022/05/20 12:15:50;;;;;;;8.85;3.00;;;;;;;29.52;17.79;95588.25;5111012;28;20210;-74
2022/05/20 12:24:15;;;;;;;9.38;3.88;;;;;;;29.57;17.49;95573.91;5110695;28;20648;-75
2022/05/20 12:26:52;;;;;;;3.22;2.05;;;;;;;29.66;17.71;95567.44;5111214;28;20634;-75
2022/05/20 12:29:47;;;;;;;8.75;2.53;;;;;;;29.77;17.13;95570.59;5109539;28;20286;-76
2022/05/20 12:32:52;;;;;;;18.38;4.40;;;;;;;29.79;18.10;95571.84;5111147;28;20204;-76
2022/05/20 12:35:24;;;;;;;20.00;4.53;;;;;;;29.67;18.62;95566.31;5105920;28;20200;-75
2022/05/20 12:38:15;;;;;;;23.70;4.32;;;;;;;29.81;18.51;95563.53;5097884;28;20639;-76
2022/05/20 12:41:15;;;;;;;5.22;1.88;;;;;;;30.11;18.42;95562.53;5098267;28;20196;-75
2022/05/20 12:43:54;;;;;;;25.70;4.07;;;;;;;30.11;18.65;95565.19;5097861;28;20295;-75
2022/05/20 12:47:07;;;;;;;4.38;2.00;;;;;;;30.07;18.24;95564.25;5092429;28;20799;-79